Time;durP1;ratioP1;P1;durP2;ratioP2;P2;SDS_P1;SDS_P2;PMS_P1;PMS_P2;Temp;Humidity;BMP_temperature;BMP_pressure;BME280_temperature;BME280_humidity;BME280_pressure;Samples;Min_cycle;Max_cycle;Signal;HPM_P1;HPM_P2
2022/12/12 05:27:14;;;;;;;;;5.00;4.00;;;;;18.16;39.20;100693.72;5057929;27;45494;-76
2022/12/12 05:29:39;;;;;;;;;3.50;0.50;;;;;18.63;39.66;100680.75;5058834;28;45474;-73
2022/12/12 05:32:05;;;;;;;;;6.25;5.00;;;;;19.30;39.86;100685.53;5050186;28;45435;-73
2022/12/12 05:34:30;;;;;;;;;5.50;5.00;;;;;19.99;39.55;100689.00;5050094;28;45502;-75
2022/12/12 05:36:55;;;;;;;;;7.00;5.50;;;;;20.66;39.33;100679.94;5049890;28;45530;-78
2022/12/12 05:39:21;;;;;;;;;4.75;4.00;;;;;21.30;39.53;100681.78;5050888;28;45774;-77
2022/12/12 05:41:47;;;;;;;;;5.50;3.00;;;;;21.85;39.41;100690.69;5051227;28;45894;-78
2022/12/12 05:44:12;;;;;;;;;2.75;2.75;;;;;22.32;38.93;100680.47;5050711;28;45455;-77
2022/12/12 05:46:37;;;;;;;;;4.00;4.00;;;;;22.74;38.30;100695.03;5049877;28;47239;-80
2022/12/12 05:49:03;;;;;;;;;5.75;5.00;;;;;23.05;38.12;100690.84;5051070;28;45508;-78
2022/12/12 05:51:28;;;;;;;;;5.00;5.00;;;;;23.33;38.24;100692.47;5052284;27;45463;-80
2022/12/12 05:53:53;;;;;;;;;4.00;4.00;;;;;23.65;37.89;100693.47;5050902;28;45543;-79
2022/12/12 05:56:19;;;;;;;;;4.00;4.00;;;;;23.86;37.55;100690.22;5051068;28;46321;-74
2022/12/12 05:58:44;;;;;;;;;4.00;3.75;;;;;24.06;37.20;100690.69;5050550;28;45483;-73
2022/12/12 06:01:10;;;;;;;;;6.67;4.33;;;;;24.28;37.30;100696.41;5053715;28;45365;-73
2022/12/12 06:03:35;;;;;;;;;3.67;3.67;;;;;24.46;37.18;100698.91;5053378;28;45415;-73
2022/12/12 06:06:01;;;;;;;;;4.00;4.00;;;;;24.61;37.13;100695.44;5048623;28;45395;-73
2022/12/12 06:08:26;;;;;;;;;2.33;2.33;;;;;24.78;36.71;100698.06;5049633;28;45447;-73
2022/12/12 06:10:52;;;;;;;;;4.00;4.00;;;;;24.90;36.71;100691.25;5053272;28;45345;-74
2022/12/12 06:13:17;;;;;;;;;5.33;3.33;;;;;25.07;36.67;100699.28;5049637;28;47450;-76
2022/12/12 06:15:43;;;;;;;;;6.00;3.67;;;;;25.21;36.49;100700.34;5051995;28;45442;-74
2022/12/12 06:18:08;;;;;;;;;3.67;3.33;;;;;25.34;36.54;100708.75;5049688;28;45483;-72
2022/12/12 06:20:35;;;;;;;;;3.33;3.33;;;;;25.45;36.33;100702.03;5049903;28;45506;-72
2022/12/12 06:23:00;;;;;;;;;5.00;3.00;;;;;25.53;36.28;100703.84;5049461;28;45565;-74
2022/12/12 06:25:25;;;;;;;;;4.00;4.00;;;;;25.65;36.13;100705.13;5056044;27;45466;-75
2022/12/12 06:27:51;;;;;;;;;4.00;4.00;;;;;25.71;36.06;100708.16;5070866;27;45567;-75
2022/12/12 06:30:16;;;;;;;;;2.67;2.67;;;;;25.81;35.76;100716.88;5069295;27;45544;-75
2022/12/12 06:32:41;;;;;;;;;4.00;4.00;;;;;25.85;35.95;100709.19;5066891;28;45733;-75
2022/12/12 06:35:08;;;;;;;;;5.00;4.67;;;;;25.77;35.71;100694.66;5063945;27;45467;-76
2022/12/12 06:37:34;;;;;;;;;4.00;4.00;;;;;25.87;35.56;100710.69;5061920;27;46982;-75
2022/12/12 06:39:59;;;;;;;;;3.00;3.00;;;;;25.84;35.36;100704.78;5035781;28;45896;-74
2022/12/12 06:42:24;;;;;;;;;3.00;3.00;;;;;25.87;35.46;100709.88;5050075;28;45486;-75
2022/12/12 06:44:50;;;;;;;;;4.00;4.00;;;;;25.82;35.28;100698.72;5055653;28;45611;-75
2022/12/12 06:47:15;;;;;;;;;4.00;4.00;;;;;25.85;35.22;100701.03;5065294;28;46568;-75
2022/12/12 06:49:40;;;;;;;;;2.33;2.33;;;;;25.87;34.96;100701.72;5037430;28;45512;-74
2022/12/12 06:52:06;;;;;;;;;3.00;3.00;;;;;25.89;34.93;100696.91;5056056;28;45303;-72
2022/12/12 06:54:31;;;;;;;;;5.00;5.00;;;;;25.94;35.15;100693.66;5055945;28;46243;-74
2022/12/12 06:56:56;;;;;;;;;3.00;3.00;;;;;25.97;34.84;100688.69;5069534;28;45464;-75
2022/12/12 06:59:21;;;;;;;;;4.00;4.00;;;;;26.04;34.47;100689.63;5056773;28;45448;-75
2022/12/12 07:01:47;;;;;;;;;4.33;4.33;;;;;26.13;34.90;100690.38;5038574;28;45427;-76
2022/12/12 07:04:13;;;;;;;;;4.00;4.00;;;;;26.22;34.77;100696.56;5057322;28;45497;-76
2022/12/12 07:06:39;;;;;;;;;3.00;3.00;;;;;26.27;34.41;100691.44;5056860;28;45858;-85
2022/12/12 07:09:05;;;;;;;;;3.67;2.33;;;;;26.27;34.63;100701.47;5059505;28;45295;-79
2022/12/12 07:11:30;;;;;;;;;6.67;6.67;;;;;26.23;34.53;100691.97;5056684;28;45569;-84
2022/12/12 07:13:57;;;;;;;;;6.33;6.33;;;;;26.28;34.16;100700.44;5038056;28;46264;-77
2022/12/12 07:16:22;;;;;;;;;6.33;5.00;;;;;26.21;34.31;100707.63;5056513;28;46572;-77
2022/12/12 07:18:48;;;;;;;;;10.00;6.00;;;;;26.11;34.22;100718.81;5064717;28;45508;-75
2022/12/12 07:21:16;;;;;;;;;5.67;5.67;;;;;26.01;34.11;100709.03;5055941;28;45449;-75
2022/12/12 07:23:42;;;;;;;;;5.00;5.00;;;;;25.98;33.98;100722.16;5056015;28;45384;-74
2022/12/12 07:26:12;;;;;;;;;8.00;7.33;;;;;25.95;34.23;100719.81;5055938;28;45480;-74
2022/12/12 07:28:37;;;;;;;;;3.67;3.00;;;;;25.97;34.70;100709.59;5056618;28;45440;-74
2022/12/12 07:31:12;;;;;;;;;5.00;5.00;;;;;26.02;33.89;100710.72;5056062;28;45425;-75
2022/12/12 07:33:38;;;;;;;;;5.33;5.00;;;;;26.06;34.24;100713.91;5056094;28;45608;-76
2022/12/12 07:36:04;;;;;;;;;5.33;5.33;;;;;26.15;34.17;100714.66;5055748;28;45412;-76
2022/12/12 07:38:30;;;;;;;;;5.00;5.00;;;;;26.22;34.32;100721.03;5056607;28;45451;-75
2022/12/12 07:41:02;;;;;;;;;5.00;5.00;;;;;26.31;33.98;100721.81;5039362;28;45739;-76
2022/12/12 07:43:27;;;;;;;;;6.00;6.00;;;;;26.30;33.64;100706.53;5056275;28;46561;-75
2022/12/12 07:45:53;;;;;;;;;8.33;6.67;;;;;26.41;34.11;100718.81;5055485;28;46907;-74
2022/12/12 07:48:18;;;;;;;;;5.00;4.00;;;;;26.49;33.79;100732.34;5052945;28;45392;-74
2022/12/12 07:50:44;;;;;;;;;3.00;3.00;;;;;26.52;34.17;100728.41;5055395;28;45475;-73
2022/12/12 07:53:09;;;;;;;;;5.00;4.00;;;;;26.56;34.00;100735.97;5064994;28;47073;-75
2022/12/12 07:55:38;;;;;;;;;5.33;5.33;;;;;26.50;34.06;100725.88;5057854;28;45400;-82
2022/12/12 07:58:03;;;;;;;;;3.00;3.00;;;;;26.61;34.19;100735.44;5056343;28;45497;-78
2022/12/12 08:00:28;;;;;;;;;5.67;5.00;;;;;26.61;34.09;100732.72;5055076;28;45415;-76
2022/12/12 08:02:54;;;;;;;;;5.00;5.00;;;;;26.63;34.06;100736.06;5061821;28;45440;-76
2022/12/12 08:05:19;;;;;;;;;6.00;5.00;;;;;26.70;33.89;100741.59;5057995;28;45510;-77
2022/12/12 08:07:45;;;;;;;;;6.33;6.00;;;;;26.63;33.65;100724.31;5060606;28;45730;-77
2022/12/12 08:10:11;;;;;;;;;4.00;3.00;;;;;26.71;33.40;100735.13;5065781;28;45794;-79
2022/12/12 08:12:36;;;;;;;;;4.33;4.33;;;;;26.71;33.79;100737.84;5055291;28;45436;-80
2022/12/12 08:15:02;;;;;;;;;4.33;4.33;;;;;26.74;33.57;100740.19;5055166;28;45421;-80
2022/12/12 08:17:27;;;;;;;;;7.67;6.33;;;;;26.74;33.92;100742.06;5055355;28;45365;-77
2022/12/12 08:19:53;;;;;;;;;4.00;4.00;;;;;26.79;33.84;100748.63;5056452;28;45469;-73
2022/12/12 08:22:18;;;;;;;;;5.00;3.67;;;;;26.84;33.38;100750.75;5055257;28;45568;-82
2022/12/12 08:24:44;;;;;;;;;4.33;4.33;;;;;26.89;33.65;100763.81;5055220;28;45415;-76
2022/12/12 08:27:10;;;;;;;;;4.67;4.67;;;;;26.96;33.63;100772.94;5058542;28;45467;-75
2022/12/12 08:29:36;;;;;;;;;6.00;6.00;;;;;26.98;33.19;100768.16;5055754;28;45423;-84
2022/12/12 08:32:01;;;;;;;;;3.33;3.33;;;;;26.97;33.64;100763.72;5063265;28;46353;-75
2022/12/12 08:34:27;;;;;;;;;6.00;4.00;;;;;27.10;33.20;100782.94;5054919;28;45885;-76
2022/12/12 08:36:53;;;;;;;;;4.00;4.00;;;;;27.14;33.29;100788.84;5055638;28;45069;-78
2022/12/12 08:39:19;;;;;;;;;3.00;3.00;;;;;27.15;33.64;100782.38;5055206;28;45494;-74
2022/12/12 08:41:49;;;;;;;;;4.00;3.00;;;;;27.10;33.02;100768.50;5054857;28;46078;-79
2022/12/12 08:44:17;;;;;;;;;5.00;5.00;;;;;27.08;33.23;100776.88;5061829;28;45530;-75
2022/12/12 08:46:42;;;;;;;;;5.00;5.00;;;;;27.08;32.91;100790.47;5055390;28;45471;-76
2022/12/12 08:49:09;;;;;;;;;2.67;2.67;;;;;27.07;33.47;100793.41;5055701;28;45494;-74
2022/12/12 08:51:40;;;;;;;;;4.00;4.00;;;;;27.03;33.66;100792.09;5057372;28;45604;-73
2022/12/12 08:54:06;;;;;;;;;3.33;3.33;;;;;26.98;33.44;100784.50;5055299;28;45433;-74
2022/12/12 08:56:31;;;;;;;;;6.00;4.67;;;;;27.00;33.18;100793.31;5056289;28;45486;-73
2022/12/12 08:58:57;;;;;;;;;5.33;5.33;;;;;26.94;33.57;100792.19;5061274;28;45414;-73
2022/12/12 09:01:24;;;;;;;;;5.00;5.00;;;;;26.94;33.00;100794.91;5054277;28;46228;-76
2022/12/12 09:03:51;;;;;;;;;6.00;6.00;;;;;27.00;33.27;100796.03;5053900;28;45410;-77
2022/12/12 09:06:17;;;;;;;;;7.00;6.00;;;;;27.03;33.03;100795.66;5055133;28;45372;-77
2022/12/12 09:08:43;;;;;;;;;3.00;3.00;;;;;27.05;33.32;100788.13;5055857;28;45336;-75
2022/12/12 09:11:09;;;;;;;;;3.67;3.67;;;;;27.00;32.89;100763.34;5054754;28;46546;-78
2022/12/12 09:13:35;;;;;;;;;4.00;4.00;;;;;27.11;32.90;100770.19;5040439;28;45788;-78
2022/12/12 09:16:00;;;;;;;;;4.33;3.33;;;;;27.14;33.20;100775.22;5049837;28;45240;-74
2022/12/12 09:18:26;;;;;;;;;4.00;4.00;;;;;27.14;33.56;100775.22;5043880;28;45444;-72
2022/12/12 09:20:54;;;;;;;;;3.67;3.67;;;;;27.10;33.58;100763.06;5053031;28;46148;-77
2022/12/12 09:23:21;;;;;;;;;6.00;6.00;;;;;27.12;32.95;100777.31;5054106;28;45525;-79
2022/12/12 09:25:47;;;;;;;;;5.00;5.00;;;;;27.09;33.14;100783.13;5054881;28;45451;-79
2022/12/12 09:28:15;;;;;;;;;4.00;4.00;;;;;27.05;33.17;100781.84;5053864;28;45458;-73
2022/12/12 09:30:41;;;;;;;;;4.33;4.00;;;;;26.99;33.44;100779.88;5054144;28;45419;-72
2022/12/12 09:33:07;;;;;;;;;5.00;5.00;;;;;26.95;33.41;100787.59;5053928;28;45845;-72
2022/12/12 09:35:32;;;;;;;;;4.33;4.33;;;;;26.91;33.29;100787.09;5059501;28;45566;-72
2022/12/12 09:37:58;;;;;;;;;5.33;5.33;;;;;26.89;33.27;100785.59;5055722;28;45434;-72
2022/12/12 09:40:30;;;;;;;;;4.00;4.00;;;;;26.85;33.36;100785.13;5053940;28;46466;-73
2022/12/12 09:42:55;;;;;;;;;4.33;4.33;;;;;26.83;32.88;100790.78;5053670;28;45420;-74
2022/12/12 09:45:21;;;;;;;;;5.33;5.33;;;;;26.83;33.17;100792.66;5055768;28;45499;-74
2022/12/12 09:47:54;;;;;;;;;7.00;7.00;;;;;26.80;33.41;100777.53;5050669;28;45518;-74
2022/12/12 09:50:43;;;;;;;;;6.33;6.33;;;;;26.84;33.15;100775.28;5046618;28;46407;-74
2022/12/12 09:53:12;;;;;;;;;7.67;6.33;;;;;26.83;33.13;100774.44;5046518;28;45459;-82
2022/12/12 09:55:49;;;;;;;;;5.00;4.00;;;;;26.81;32.86;100767.50;5053210;28;45555;-74
2022/12/12 09:58:22;;;;;;;;;5.00;5.00;;;;;26.84;33.20;100770.69;5056986;28;45464;-75
2022/12/12 10:01:27;;;;;;;;;4.33;4.33;;;;;26.83;33.03;100762.69;5053379;28;45657;-74
2022/12/12 10:03:56;;;;;;;;;3.67;3.67;;;;;26.83;33.11;100763.56;5049165;28;45342;-75
2022/12/12 10:06:24;;;;;;;;;8.00;8.00;;;;;26.79;33.01;100745.91;5047127;28;46155;-75
2022/12/12 10:09:26;;;;;;;;;7.00;6.67;;;;;26.78;32.73;100746.94;5045845;28;45581;-77
2022/12/12 10:11:55;;;;;;;;;4.67;4.00;;;;;26.73;32.87;100737.66;5049556;28;46667;-76
2022/12/12 10:14:31;;;;;;;;;7.00;6.00;;;;;26.72;32.94;100744.13;5056860;28;45479;-75
2022/12/12 10:16:58;;;;;;;;;6.67;6.67;;;;;26.69;33.08;100759.81;5049275;28;46934;-79
2022/12/12 10:19:29;;;;;;;;;10.33;7.00;;;;;26.69;33.01;100767.16;5061228;28;45511;-81
2022/12/12 10:22:03;;;;;;;;;6.67;6.67;;;;;26.68;32.68;100779.03;5058286;28;46223;-82
2022/12/12 10:24:49;;;;;;;;;4.33;4.33;;;;;26.68;33.22;100771.72;5051717;28;45756;-74
2022/12/12 10:27:14;;;;;;;;;5.67;5.33;;;;;26.62;32.62;100764.34;5046672;28;45394;-75
2022/12/12 10:29:45;;;;;;;;;4.00;4.00;;;;;26.73;32.84;100773.03;5054064;28;45890;-76
2022/12/12 10:32:28;;;;;;;;;6.00;5.00;;;;;26.75;33.04;100755.47;5055318;28;46085;-76
2022/12/12 10:35:07;;;;;;;;;5.00;5.00;;;;;26.83;32.56;100763.56;5055450;28;45451;-75
2022/12/12 10:37:49;;;;;;;;;5.67;5.00;;;;;26.86;33.00;100756.88;5059522;28;45456;-76
2022/12/12 10:40:20;;;;;;;;;4.00;4.00;;;;;26.88;32.66;100756.66;5060509;28;45847;-77
2022/12/12 10:42:59;;;;;;;;;6.00;4.33;;;;;26.87;32.99;100755.84;5055278;28;46079;-76
2022/12/12 10:45:53;;;;;;;;;6.33;6.33;;;;;26.84;32.94;100740.72;5056010;28;45416;-77
2022/12/12 10:48:19;;;;;;;;;4.67;4.67;;;;;26.88;32.65;100745.78;5047525;28;45238;-76
2022/12/12 10:50:55;;;;;;;;;7.00;6.00;;;;;26.87;33.07;100735.94;5056495;28;45397;-81
2022/12/12 10:53:21;;;;;;;;;6.00;6.00;;;;;26.78;32.60;100717.00;5057189;28;46297;-80
2022/12/12 10:56:03;;;;;;;;;4.67;4.67;;;;;26.82;32.44;100725.63;5056496;28;45429;-80
2022/12/12 10:58:43;;;;;;;;;4.00;4.00;;;;;26.77;33.09;100712.56;5056932;28;45400;-81
2022/12/12 11:01:34;;;;;;;;;4.00;4.00;;;;;26.73;32.42;100699.53;5055709;28;45647;-81
2022/12/12 11:04:00;;;;;;;;;8.00;8.00;;;;;26.68;32.63;100683.75;5056529;28;46067;-80
2022/12/12 11:06:34;;;;;;;;;6.00;5.33;;;;;26.65;32.45;100674.09;5055450;28;45679;-77
2022/12/12 11:09:07;;;;;;;;;7.00;7.00;;;;;26.65;32.99;100668.66;5060851;28;45468;-77
2022/12/12 11:11:33;;;;;;;;;7.67;7.67;;;;;26.65;32.92;100665.94;5059369;28;45579;-76
2022/12/12 11:14:01;;;;;;;;;7.00;5.67;;;;;26.62;32.60;100657.31;5055334;28;46113;-77
2022/12/12 11:16:40;;;;;;;;;5.00;5.00;;;;;26.63;32.86;100668.03;5056532;28;45468;-76
2022/12/12 11:19:18;;;;;;;;;8.00;8.00;;;;;26.70;32.36;100674.38;5058006;28;45471;-76
2022/12/12 11:21:45;;;;;;;;;5.67;5.67;;;;;26.72;32.71;100670.63;5055062;28;45333;-76
2022/12/12 11:24:17;;;;;;;;;5.67;5.67;;;;;26.75;32.58;100678.41;5059491;28;47176;-76
2022/12/12 11:26:54;;;;;;;;;9.00;7.00;;;;;26.72;32.38;100668.75;5060462;28;45596;-76
2022/12/12 11:29:30;;;;;;;;;7.00;7.00;;;;;26.73;32.45;100661.44;5056410;28;45428;-73
2022/12/12 11:31:57;;;;;;;;;4.67;4.67;;;;;26.71;32.69;100667.06;5047580;28;45510;-72
2022/12/12 11:34:26;;;;;;;;;5.00;5.00;;;;;26.69;32.23;100667.25;5055470;28;45459;-73
2022/12/12 11:36:52;;;;;;;;;7.33;7.00;;;;;26.66;32.63;100670.38;5045842;28;45595;-73
2022/12/12 11:39:20;;;;;;;;;10.00;9.33;;;;;26.66;32.53;100683.13;5055120;28;45830;-74
2022/12/12 11:42:02;;;;;;;;;8.00;7.00;;;;;26.61;32.61;100672.81;5048516;28;45390;-78
2022/12/12 11:44:34;;;;;;;;;9.00;9.00;;;;;26.57;32.58;100672.34;5056537;27;46195;-81
2022/12/12 11:47:17;;;;;;;;;5.67;5.67;;;;;26.56;32.43;100665.22;5060289;28;45560;-83
2022/12/12 11:49:47;;;;;;;;;8.00;8.00;;;;;26.55;32.49;100665.41;5044240;28;45603;-75
2022/12/12 11:52:27;;;;;;;;;9.33;7.00;;;;;26.55;32.08;100662.69;5057528;28;45456;-74
2022/12/12 11:54:53;;;;;;;;;7.33;7.33;;;;;26.56;32.69;100658.91;5054919;28;45457;-76
2022/12/12 11:57:28;;;;;;;;;8.00;7.00;;;;;26.60;31.96;100649.34;5056619;28;45546;-76
2022/12/12 12:00:11;;;;;;;;;8.67;7.00;;;;;26.55;32.29;100632.75;5056121;28;45406;-75
2022/12/12 12:03:04;;;;;;;;;6.00;6.00;;;;;26.70;32.02;100649.88;5048308;28;45690;-73
2022/12/12 12:05:48;;;;;;;;;7.00;6.33;;;;;26.71;32.60;100648.00;5053090;28;46109;-76
2022/12/12 12:08:41;;;;;;;;;7.33;6.33;;;;;26.73;31.96;100651.38;5057028;28;45472;-73
2022/12/12 12:11:39;;;;;;;;;7.00;6.67;;;;;26.72;32.02;100648.84;5052754;28;45622;-75
2022/12/12 12:14:16;;;;;;;;;6.00;6.00;;;;;26.72;32.08;100643.41;5040300;28;45317;-75
2022/12/12 12:16:44;;;;;;;;;7.00;6.00;;;;;26.71;32.44;100645.28;5053575;28;46125;-80
2022/12/12 12:19:46;;;;;;;;;2.33;2.33;;;;;26.68;32.44;100640.22;5052441;28;45506;-80
2022/12/12 12:22:31;;;;;;;;;9.00;8.00;;;;;26.67;32.49;100633.94;5048930;28;45646;-78
2022/12/12 12:25:11;;;;;;;;;8.00;8.00;;;;;26.66;32.43;100629.53;5054468;28;45724;-79
2022/12/12 12:27:39;;;;;;;;;8.00;7.00;;;;;26.65;32.33;100625.09;5052347;28;47865;-74
2022/12/12 12:30:18;;;;;;;;;8.33;6.67;;;;;26.67;32.02;100631.22;5053764;28;45382;-74
2022/12/12 12:32:49;;;;;;;;;7.00;7.00;;;;;26.70;32.08;100628.09;5076095;27;45453;-75
2022/12/12 12:35:32;;;;;;;;;9.00;8.00;;;;;26.72;32.54;100611.56;5058626;28;45380;-75
2022/12/12 12:38:30;;;;;;;;;8.00;6.33;;;;;26.75;32.65;100607.63;5053397;28;46255;-75
2022/12/12 12:41:17;;;;;;;;;7.33;7.33;;;;;26.84;32.06;100612.75;5064837;28;45523;-79
2022/12/12 12:43:46;;;;;;;;;10.33;6.33;;;;;26.91;32.47;100618.28;5053515;28;45544;-79
2022/12/12 12:46:36;;;;;;;;;8.00;8.00;;;;;26.95;32.08;100607.84;5054891;28;45522;-78
2022/12/12 12:49:14;;;;;;;;;8.00;8.00;;;;;26.97;32.34;100597.59;5054143;28;46224;-80
2022/12/12 12:51:54;;;;;;;;;8.00;8.00;;;;;27.06;31.92;100607.31;5048739;28;45356;-80
2022/12/12 12:54:26;;;;;;;;;7.00;6.67;;;;;27.08;32.16;100602.53;5052535;28;45408;-79
2022/12/12 12:57:16;;;;;;;;;5.00;5.00;;;;;27.03;32.85;100596.84;5063021;28;45503;-76
2022/12/12 12:59:52;;;;;;;;;6.00;6.00;;;;;27.06;32.38;100588.25;5026874;28;46538;-76
2022/12/12 13:02:29;;;;;;;;;7.33;7.33;;;;;27.12;32.29;100592.06;5061394;28;45455;-77
2022/12/12 13:04:54;;;;;;;;;7.00;6.00;;;;;27.08;32.23;100588.91;5059178;28;45391;-76
2022/12/12 13:07:29;;;;;;;;;7.00;7.00;;;;;27.05;31.73;100586.56;5054246;28;45542;-75
2022/12/12 13:10:28;;;;;;;;;10.00;7.33;;;;;27.06;32.03;100590.97;5060488;28;46569;-75
2022/12/12 13:13:27;;;;;;;;;8.67;7.00;;;;;27.08;32.23;100588.06;4980424;28;45426;-78
2022/12/12 13:15:58;;;;;;;;;8.00;8.00;;;;;27.01;31.94;100563.50;4976554;28;45533;-79
2022/12/12 13:18:25;;;;;;;;;7.67;6.33;;;;;27.15;32.37;100574.50;4973339;28;45445;-76
2022/12/12 13:21:04;;;;;;;;;6.67;6.67;;;;;27.10;32.28;100556.03;4972023;28;46769;-80
2022/12/12 13:23:32;;;;;;;;;6.00;6.00;;;;;27.22;32.42;100562.59;4970737;28;45469;-78
2022/12/12 13:25:58;;;;;;;;;7.67;7.33;;;;;27.26;32.48;100563.06;4987657;28;45339;-75
2022/12/12 13:28:34;;;;;;;;;8.00;6.00;;;;;27.29;32.54;100556.34;4970798;28;45607;-74
2022/12/12 13:31:09;;;;;;;;;6.33;6.33;;;;;27.34;32.05;100552.00;4954462;28;46515;-73
2022/12/12 13:33:45;;;;;;;;;5.00;5.00;;;;;27.39;32.27;100553.28;4972841;28;45416;-77
2022/12/12 13:36:25;;;;;;;;;8.67;6.33;;;;;27.35;32.44;100542.78;4971305;28;45382;-81
2022/12/12 13:38:57;;;;;;;;;5.67;5.67;;;;;27.36;31.90;100546.38;4974131;28;45604;-79
2022/12/12 13:41:23;;;;;;;;;6.67;6.67;;;;;27.41;32.47;100553.94;4970310;28;45658;-83
2022/12/12 13:43:55;;;;;;;;;8.33;8.33;;;;;27.40;32.01;100546.78;4971753;28;45544;-79
2022/12/12 13:46:25;;;;;;;;;6.00;6.00;;;;;27.37;32.42;100534.41;4971662;28;45380;-81
2022/12/12 13:48:57;;;;;;;;;7.00;6.33;;;;;27.31;31.73;100530.63;5015719;28;45600;-79
2022/12/12 13:51:29;;;;;;;;;7.33;7.00;;;;;27.31;32.07;100537.94;5060466;28;45507;-79
2022/12/12 13:54:07;;;;;;;;;7.67;7.67;;;;;27.27;32.27;100545.69;5053532;28;45388;-79
2022/12/12 13:56:42;;;;;;;;;6.67;6.67;;;;;27.26;31.95;100541.25;5068343;28;45558;-78
2022/12/12 13:59:26;;;;;;;;;6.67;6.00;;;;;27.25;31.93;100536.84;5066060;28;45530;-78
2022/12/12 14:01:55;;;;;;;;;7.67;6.33;;;;;27.26;32.55;100540.44;5061056;28;45417;-76
2022/12/12 14:04:33;;;;;;;;;6.33;6.33;;;;;27.27;32.31;100542.97;5063733;28;45467;-77
2022/12/12 14:07:19;;;;;;;;;6.33;6.33;;;;;27.32;31.73;100539.63;5066081;28;45289;-76
2022/12/12 14:09:49;;;;;;;;;6.00;6.00;;;;;27.32;32.04;100543.19;5052072;28;45496;-76
2022/12/12 14:12:22;;;;;;;;;6.00;6.00;;;;;27.40;32.72;100552.25;5057558;28;46271;-76
2022/12/12 14:15:28;;;;;;;;;5.67;5.67;;;;;27.44;32.13;100556.25;5058207;28;45676;-74
2022/12/12 14:17:58;;;;;;;;;6.00;6.00;;;;;27.44;32.46;100554.41;4994902;28;45593;-76
2022/12/12 14:20:35;;;;;;;;;6.67;6.67;;;;;27.46;32.47;100557.75;4977913;28;45538;-75
2022/12/12 14:23:12;;;;;;;;;5.00;5.00;;;;;27.47;31.97;100555.88;4975565;28;45870;-76
2022/12/12 14:25:39;;;;;;;;;7.00;6.67;;;;;27.45;32.62;100558.78;4982655;28;45421;-75
2022/12/12 14:28:22;;;;;;;;;7.33;6.00;;;;;27.44;31.95;100559.00;4993952;28;45537;-76
2022/12/12 14:31:07;;;;;;;;;7.33;7.33;;;;;27.41;32.00;100562.09;4993325;28;45568;-76
2022/12/12 14:34:15;;;;;;;;;7.00;7.00;;;;;27.35;32.73;100553.69;4992737;28;45566;-77
2022/12/12 14:37:01;;;;;;;;;5.00;5.00;;;;;27.37;32.25;100558.94;4993847;28;45541;-77
2022/12/12 14:39:47;;;;;;;;;7.00;7.00;;;;;27.34;32.37;100557.47;4995151;28;45473;-77
2022/12/12 14:42:40;;;;;;;;;7.00;6.00;;;;;27.34;32.70;100552.00;4977497;28;45517;-77
2022/12/12 14:45:23;;;;;;;;;6.33;6.33;;;;;27.32;32.61;100545.94;4985130;28;45963;-75
2022/12/12 14:48:06;;;;;;;;;9.67;9.00;;;;;27.39;32.24;100556.03;4991700;28;46102;-78
2022/12/12 14:50:31;;;;;;;;;6.67;6.67;;;;;27.38;32.65;100548.91;4992307;28;45518;-79
2022/12/12 14:52:57;;;;;;;;;8.67;7.00;;;;;27.39;32.40;100556.03;4996687;28;45915;-81
2022/12/12 14:55:23;;;;;;;;;7.00;7.00;;;;;27.40;32.22;100555.81;5053521;28;46645;-80
2022/12/12 14:57:48;;;;;;;;;5.33;5.33;;;;;27.44;32.74;100557.13;5047777;28;46024;-72
2022/12/12 15:00:20;;;;;;;;;7.33;7.33;;;;;27.42;32.26;100550.19;5051491;28;45578;-77
2022/12/12 15:02:49;;;;;;;;;9.67;9.67;;;;;27.37;32.61;100558.94;5055162;28;45331;-79
2022/12/12 15:05:15;;;;;;;;;11.67;10.00;;;;;27.25;31.78;100568.72;5045098;28;46102;-77
2022/12/12 15:07:40;;;;;;;;;9.33;7.67;;;;;27.10;32.14;100564.22;5045105;28;45552;-78
2022/12/12 15:10:25;;;;;;;;;12.33;9.33;;;;;26.94;32.23;100554.44;5041854;28;45630;-80
2022/12/12 15:12:50;;;;;;;;;8.33;7.67;;;;;26.91;31.85;100569.25;5043124;28;45794;-77
2022/12/12 15:15:26;;;;;;;;;9.33;9.00;;;;;26.87;31.76;100567.09;5039686;28;45487;-77
2022/12/12 15:17:54;;;;;;;;;10.00;9.00;;;;;26.84;31.86;100565.63;5049288;28;45521;-73
2022/12/12 15:20:23;;;;;;;;;7.67;7.67;;;;;26.84;31.63;100571.91;5037896;28;45468;-73
2022/12/12 15:22:59;;;;;;;;;11.33;8.67;;;;;26.89;31.80;100575.94;5043106;28;45890;-74
2022/12/12 15:25:34;;;;;;;;;8.67;8.67;;;;;26.95;32.20;100577.91;5041832;28;45586;-71
2022/12/12 15:28:00;;;;;;;;;9.33;8.00;;;;;26.95;31.85;100564.28;5046532;28;45444;-72
2022/12/12 15:30:35;;;;;;;;;6.00;6.00;;;;;26.86;31.92;100560.84;5036816;28;45423;-74
2022/12/12 15:33:03;;;;;;;;;7.00;7.00;;;;;26.69;31.90;100560.25;5044891;28;45455;-77
2022/12/12 15:35:29;;;;;;;;;7.67;5.67;;;;;26.63;31.70;100558.28;5043177;28;46160;-76
2022/12/12 15:38:09;;;;;;;;;8.00;8.00;;;;;26.59;31.60;100555.13;5042496;28;45401;-76
2022/12/12 15:40:36;;;;;;;;;7.33;6.00;;;;;26.65;31.99;100561.69;5041046;28;45673;-75
2022/12/12 15:43:14;;;;;;;;;7.00;7.00;;;;;26.71;31.80;100563.63;5047946;28;45581;-73
2022/12/12 15:45:55;;;;;;;;;7.33;7.00;;;;;26.79;31.66;100562.63;5039832;28;46694;-74
2022/12/12 15:48:22;;;;;;;;;9.67;7.00;;;;;26.78;31.92;100547.34;5053841;28;45613;-72
2022/12/12 15:50:55;;;;;;;;;7.00;7.00;;;;;26.93;31.59;100555.44;5062443;28;45504;-75
2022/12/12 15:53:33;;;;;;;;;7.00;7.00;;;;;27.01;32.04;100551.78;5053485;28;45711;-75
2022/12/12 15:56:13;;;;;;;;;5.00;5.00;;;;;27.12;31.98;100548.50;5054248;28;45524;-76
2022/12/12 15:58:42;;;;;;;;;8.00;8.00;;;;;27.21;32.09;100543.72;5050633;28;45492;-75
2022/12/12 16:01:13;;;;;;;;;6.67;6.67;;;;;27.29;31.71;100553.63;5056698;28;45981;-76
2022/12/12 16:04:05;;;;;;;;;8.00;8.00;;;;;27.32;31.42;100542.34;5050060;28;45632;-73
2022/12/12 16:06:46;;;;;;;;;9.00;7.67;;;;;27.43;31.38;100546.41;5054312;28;45301;-73
2022/12/12 16:09:16;;;;;;;;;8.33;7.00;;;;;27.49;31.57;100551.06;5049504;28;45392;-73
2022/12/12 16:11:46;;;;;;;;;8.00;6.67;;;;;27.52;31.89;100542.50;5055631;27;45614;-76
2022/12/12 16:14:31;;;;;;;;;7.00;6.00;;;;;27.63;31.78;100541.13;5054544;28;45722;-75
2022/12/12 16:17:14;;;;;;;;;6.67;5.33;;;;;27.63;31.23;100541.13;5055446;28;47557;-76
2022/12/12 16:19:53;;;;;;;;;10.00;8.00;;;;;27.62;31.33;100547.59;5055965;28;45515;-77
2022/12/12 16:22:38;;;;;;;;;9.00;6.00;;;;;27.66;31.61;100548.88;5060510;28;45253;-74
2022/12/12 16:25:24;;;;;;;;;8.33;7.00;;;;;27.67;30.91;100549.72;5034681;28;46550;-74
2022/12/12 16:28:08;;;;;;;;;4.33;4.33;;;;;27.68;31.36;100543.22;5054275;28;46058;-75
2022/12/12 16:30:35;;;;;;;;;6.33;6.00;;;;;27.71;31.81;100545.56;5055484;28;45562;-76
2022/12/12 16:33:19;;;;;;;;;5.33;5.33;;;;;27.74;31.81;100545.13;5056063;28;45416;-75
2022/12/12 16:35:45;;;;;;;;;9.67;6.00;;;;;27.77;31.05;100536.56;5053622;28;45444;-77
2022/12/12 16:38:16;;;;;;;;;4.67;4.67;;;;;27.83;31.64;100529.47;5053381;28;45992;-77
2022/12/12 16:40:43;;;;;;;;;7.67;6.33;;;;;27.82;31.21;100517.72;5052838;28;46256;-72
2022/12/12 16:43:11;;;;;;;;;7.00;7.00;;;;;27.92;31.17;100530.13;5049515;28;45467;-76
2022/12/12 16:45:37;;;;;;;;;6.00;6.00;;;;;27.96;31.25;100532.22;5054948;28;45388;-73
2022/12/12 16:48:14;;;;;;;;;8.67;7.00;;;;;27.95;31.44;100518.81;5051735;28;45494;-74
2022/12/12 17:54:44;;;;;;;;;13.50;13.00;;;;;20.15;33.78;100482.75;5047908;27;45502;-73
2022/12/12 17:57:10;;;;;;;;;9.75;8.00;;;;;20.44;34.25;100481.69;5040795;28;46688;-74
2022/12/12 17:59:35;;;;;;;;;10.00;10.00;;;;;20.85;34.07;100478.47;5036330;28;45717;-75
2022/12/12 18:02:00;;;;;;;;;10.50;10.50;;;;;21.38;34.02;100486.63;5055183;28;45682;-75
2022/12/12 18:04:26;;;;;;;;;9.67;9.33;;;;;21.85;34.17;100484.50;5053842;28;46867;-74
2022/12/12 18:06:51;;;;;;;;;9.00;9.00;;;;;22.27;33.97;100471.94;5034650;28;45633;-77
2022/12/12 18:09:17;;;;;;;;;13.00;8.00;;;;;22.64;34.15;100464.38;5035440;28;46950;-78
2022/12/12 18:11:44;;;;;;;;;9.25;8.50;;;;;22.98;33.52;100468.78;5045891;28;45380;-79
2022/12/12 18:14:17;;;;;;;;;10.50;9.00;;;;;23.25;33.50;100455.84;5043067;28;47002;-80
2022/12/12 18:16:43;;;;;;;;;8.00;7.33;;;;;23.55;33.34;100463.41;5037323;28;45358;-72